createdAt,value
2023-01-19T00:00:59.456Z,-0.64
2023-01-19T00:03:28.123Z,-0.65
2023-01-19T00:05:56.575Z,-0.51
2023-01-19T00:08:24.933Z,-0.45
2023-01-19T00:10:53.363Z,-0.43
2023-01-19T00:13:21.767Z,-0.44
2023-01-19T00:15:51.510Z,-0.43
2023-01-19T00:18:20.018Z,-0.46
2023-01-19T00:20:49.313Z,-0.40
2023-01-19T00:23:17.784Z,-0.48
2023-01-19T00:25:47.833Z,-0.51
2023-01-19T00:28:17.807Z,-0.57
2023-01-19T00:30:46.818Z,-0.49
2023-01-19T00:33:16.523Z,-0.49
2023-01-19T00:35:45.399Z,-0.44
2023-01-19T00:38:13.779Z,-0.42
2023-01-19T00:40:42.106Z,-0.51
2023-01-19T00:43:10.480Z,-0.60
2023-01-19T00:45:38.888Z,-0.67
2023-01-19T00:48:07.602Z,-0.67
2023-01-19T00:50:37.331Z,-0.73
2023-01-19T00:53:05.703Z,-0.79
2023-01-19T00:55:34.280Z,-0.78
2023-01-19T00:58:03.534Z,-0.76
2023-01-19T01:00:36.851Z,-0.83
2023-01-19T01:03:05.618Z,-0.79
2023-01-19T01:05:33.975Z,-0.67
2023-01-19T01:08:03.695Z,-0.70
2023-01-19T01:10:32.081Z,-0.79
2023-01-19T01:13:19.893Z,-0.77
2023-01-19T01:15:51.064Z,-0.65
2023-01-19T01:18:19.582Z,-0.55
2023-01-19T01:20:48.085Z,-0.60
2023-01-19T01:23:23.200Z,-0.65
2023-01-19T01:25:51.706Z,-0.62
2023-01-19T01:28:20.145Z,-0.55
2023-01-19T01:30:48.638Z,-0.62
2023-01-19T01:33:39.780Z,-0.57
2023-01-19T01:36:06.095Z,-0.62
2023-01-19T01:38:35.804Z,-0.70
2023-01-19T01:41:04.407Z,-0.75
2023-01-19T01:43:45.324Z,-0.84
2023-01-19T01:46:16.116Z,-0.87
2023-01-19T01:48:50.760Z,-0.90
2023-01-19T01:51:25.432Z,-0.87
2023-01-19T01:54:06.943Z,-0.95
2023-01-19T01:56:38.568Z,-0.96
2023-01-19T01:59:10.376Z,-0.92
2023-01-19T02:01:56.449Z,-0.91
2023-01-19T02:04:25.350Z,-0.88
2023-01-19T02:07:11.540Z,-0.96
2023-01-19T02:09:58.685Z,-1.01
2023-01-19T02:12:45.348Z,-0.98
2023-01-19T02:15:22.408Z,-1.08
2023-01-19T02:17:51.028Z,-1.06
2023-01-19T02:20:21.679Z,-1.09
2023-01-19T02:22:52.194Z,-1.11
2023-01-19T02:25:22.060Z,-1.14
2023-01-19T02:27:51.514Z,-1.12
2023-01-19T02:30:20.301Z,-1.19
2023-01-19T02:32:48.646Z,-1.17
2023-01-19T02:35:18.704Z,-1.22
2023-01-19T02:37:47.924Z,-1.20
2023-01-19T02:40:20.713Z,-1.20
2023-01-19T02:42:53.034Z,-1.27
2023-01-19T02:45:23.576Z,-1.29
2023-01-19T02:47:53.314Z,-1.23
2023-01-19T02:50:38.123Z,-1.23
2023-01-19T02:53:26.096Z,-1.20
2023-01-19T02:55:59.495Z,-1.30
2023-01-19T02:58:35.746Z,-1.26
2023-01-19T03:01:14.043Z,-1.19
2023-01-19T03:03:55.621Z,-1.22
2023-01-19T03:06:38.851Z,-1.14
2023-01-19T03:09:15.403Z,-1.05
2023-01-19T03:11:51.168Z,-0.98
2023-01-19T03:14:24.200Z,-0.99
2023-01-19T03:16:56.951Z,-0.98
2023-01-19T03:19:29.313Z,-0.96
2023-01-19T03:22:00.096Z,-0.92
2023-01-19T03:24:32.261Z,-0.93
2023-01-19T03:27:04.713Z,-0.88
2023-01-19T03:29:36.105Z,-0.86
2023-01-19T03:32:10.421Z,-0.84
2023-01-19T03:34:41.056Z,-0.82
2023-01-19T03:37:12.300Z,-0.83
2023-01-19T03:39:41.160Z,-0.82
2023-01-19T03:42:13.513Z,-0.70
2023-01-19T03:44:45.158Z,-0.69
2023-01-19T03:47:15.660Z,-0.70
2023-01-19T03:49:46.763Z,-0.63
2023-01-19T03:52:15.165Z,-0.65
2023-01-19T03:54:43.910Z,-0.69
2023-01-19T03:57:12.811Z,-0.76
2023-01-19T03:59:42.737Z,-0.79
2023-01-19T04:02:11.225Z,-0.79
2023-01-19T04:04:40.061Z,-0.72
2023-01-19T04:07:10.703Z,-0.63
2023-01-19T04:09:39.058Z,-0.56
2023-01-19T04:12:07.772Z,-0.57
2023-01-19T04:14:36.114Z,-0.57
2023-01-19T04:17:05.839Z,-0.52
2023-01-19T04:19:34.146Z,-0.55
2023-01-19T04:22:02.626Z,-0.49
2023-01-19T04:24:31.027Z,-0.41
2023-01-19T04:26:59.444Z,-0.43
2023-01-19T04:29:27.774Z,-0.34
2023-01-19T04:31:56.085Z,-0.30
2023-01-19T04:34:25.905Z,-0.30
2023-01-19T04:36:55.884Z,-0.24
2023-01-19T04:39:24.239Z,-0.21
2023-01-19T04:41:52.809Z,-0.23
2023-01-19T04:44:21.182Z,-0.22
2023-01-19T04:46:49.657Z,-0.21
2023-01-19T04:49:18.284Z,-0.20
2023-01-19T04:51:48.470Z,-0.15
2023-01-19T04:54:16.983Z,-0.19
2023-01-19T04:56:45.325Z,-0.18
2023-01-19T04:59:14.335Z,-0.13
2023-01-19T05:01:42.786Z,-0.14
2023-01-19T05:04:11.127Z,-0.09
2023-01-19T05:06:39.589Z,-0.16
2023-01-19T05:09:11.643Z,-0.15
2023-01-19T05:11:40.191Z,-0.10
2023-01-19T05:14:08.530Z,-0.03
2023-01-19T05:16:36.873Z,-0.07
2023-01-19T05:19:05.246Z,-0.07
2023-01-19T05:21:33.600Z,-0.08
2023-01-19T05:24:01.916Z,-0.07
2023-01-19T05:26:31.592Z,-0.04
2023-01-19T05:28:59.962Z,-0.02
2023-01-19T05:31:28.512Z,-0.04
2023-01-19T05:33:56.919Z,-0.09
2023-01-19T05:36:25.234Z,-0.14
2023-01-19T05:38:53.786Z,-0.15
2023-01-19T05:41:22.166Z,-0.17
2023-01-19T05:43:51.889Z,-0.24
2023-01-19T05:46:20.335Z,-0.22
2023-01-19T05:48:48.798Z,-0.24
2023-01-19T05:51:18.164Z,-0.28
2023-01-19T05:53:46.821Z,-0.24
2023-01-19T05:56:15.146Z,-0.23
2023-01-19T05:58:43.503Z,-0.24
2023-01-19T06:01:13.664Z,-0.30
2023-01-19T06:03:42.420Z,-0.38
2023-01-19T06:06:11.519Z,-0.42
2023-01-19T06:08:40.411Z,-0.39
2023-01-19T06:11:09.052Z,-0.40
2023-01-19T06:13:41.269Z,-0.36
2023-01-19T06:16:11.570Z,-0.36
2023-01-19T06:18:41.940Z,-0.38
2023-01-19T06:21:13.552Z,-0.36
2023-01-19T06:23:42.258Z,-0.35
2023-01-19T06:26:10.783Z,-0.38
2023-01-19T06:28:39.168Z,-0.36
2023-01-19T06:31:07.542Z,-0.41
2023-01-19T06:33:35.941Z,-0.40
2023-01-19T06:36:06.526Z,-0.44
2023-01-19T06:38:35.119Z,-0.46
2023-01-19T06:41:03.555Z,-0.50
2023-01-19T06:43:32.459Z,-0.45
2023-01-19T06:46:01.687Z,-0.42
2023-01-19T06:48:30.214Z,-0.47
2023-01-19T06:50:59.797Z,-0.42
2023-01-19T06:53:30.145Z,-0.46
2023-01-19T06:56:03.388Z,-0.50
2023-01-19T06:58:34.739Z,-0.52
2023-01-19T07:01:03.718Z,-0.28
2023-01-19T07:03:32.834Z,-0.22
2023-01-19T07:06:02.688Z,-0.39
2023-01-19T07:08:32.576Z,-0.52
2023-01-19T07:11:24.755Z,-0.53
2023-01-19T07:13:51.563Z,-0.56
2023-01-19T07:16:20.007Z,-0.48
2023-01-19T07:18:49.210Z,-0.56
2023-01-19T07:21:17.779Z,-0.54
2023-01-19T07:23:49.243Z,-0.59
2023-01-19T07:26:19.777Z,-0.64
2023-01-19T07:28:48.807Z,-0.70
2023-01-19T07:31:18.223Z,-0.73
2023-01-19T07:33:46.993Z,-0.70
2023-01-19T07:36:16.027Z,-0.76
2023-01-19T07:38:44.581Z,-0.67
2023-01-19T07:41:14.367Z,-0.65
2023-01-19T07:43:42.816Z,-0.59
2023-01-19T07:46:11.168Z,-0.61
2023-01-19T07:48:39.552Z,-0.54
2023-01-19T07:51:13.077Z,-0.45
2023-01-19T07:53:42.207Z,-0.40
2023-01-19T07:56:11.578Z,-0.40
2023-01-19T07:58:41.304Z,-0.35
2023-01-19T08:01:11.374Z,-0.40
2023-01-19T08:03:40.369Z,-0.39
2023-01-19T08:06:08.829Z,-0.42
2023-01-19T08:08:37.666Z,-0.36
2023-01-19T08:11:06.340Z,-0.28
2023-01-19T08:13:34.660Z,-0.28
2023-01-19T08:16:04.855Z,-0.27
2023-01-19T08:18:33.257Z,-0.28
2023-01-19T08:21:01.595Z,-0.33
2023-01-19T08:23:30.081Z,-0.29
2023-01-19T08:25:58.404Z,-0.30
2023-01-19T08:28:26.874Z,-0.24
2023-01-19T08:30:55.419Z,-0.22
2023-01-19T08:33:25.648Z,-0.21
2023-01-19T08:35:54.937Z,-0.23
2023-01-19T08:38:24.833Z,-0.15
2023-01-19T08:40:53.242Z,-0.23
2023-01-19T08:43:21.560Z,-0.16
2023-01-19T08:45:52.622Z,-0.16
2023-01-19T08:48:25.324Z,-0.11
2023-01-19T08:50:53.938Z,-0.16
2023-01-19T08:53:24.060Z,-0.15
2023-01-19T08:55:57.306Z,-0.16
2023-01-19T08:58:25.645Z,-0.15
2023-01-19T09:00:54.235Z,-0.06
2023-01-19T09:03:23.562Z,0.04
2023-01-19T09:05:53.304Z,0.04
2023-01-19T09:08:21.636Z,0.00
2023-01-19T09:10:52.288Z,0.10
2023-01-19T09:13:21.081Z,0.18
2023-01-19T09:15:49.707Z,0.15
2023-01-19T09:18:20.581Z,0.24
2023-01-19T09:20:50.603Z,0.27
2023-01-19T09:23:22.566Z,0.28
2023-01-19T09:25:57.612Z,0.17
2023-01-19T09:28:26.793Z,0.17
2023-01-19T09:30:55.339Z,0.09
2023-01-19T09:33:24.513Z,0.08
2023-01-19T09:35:53.075Z,0.17
2023-01-19T09:38:23.865Z,0.22
2023-01-19T09:40:54.963Z,0.29
2023-01-19T09:43:34.922Z,0.44
2023-01-19T09:46:06.633Z,0.40
2023-01-19T09:48:45.631Z,0.43
2023-01-19T09:51:17.885Z,0.40
2023-01-19T09:53:55.385Z,0.31
2023-01-19T09:56:25.062Z,0.25
2023-01-19T09:58:53.960Z,0.30
2023-01-19T10:01:36.093Z,0.53
2023-01-19T10:04:27.690Z,0.83
2023-01-19T10:07:06.411Z,1.30
2023-01-19T10:09:43.603Z,1.34
2023-01-19T10:12:19.908Z,1.09
2023-01-19T10:14:55.059Z,0.99
2023-01-19T10:17:38.099Z,1.02
2023-01-19T10:20:17.849Z,1.16
2023-01-19T10:22:49.795Z,1.26
2023-01-19T10:25:23.648Z,1.29
2023-01-19T10:27:52.510Z,1.30
2023-01-19T10:30:24.349Z,1.10
2023-01-19T10:32:53.492Z,1.03
2023-01-19T10:35:25.002Z,0.99
2023-01-19T10:37:57.116Z,1.01
2023-01-19T10:40:34.603Z,0.99
2023-01-19T10:43:03.761Z,1.00
2023-01-19T10:45:32.684Z,1.02
2023-01-19T10:48:07.160Z,1.00
2023-01-19T10:50:39.916Z,1.03
2023-01-19T10:53:21.723Z,0.89
2023-01-19T10:56:18.693Z,0.93
2023-01-19T10:58:47.389Z,0.90
2023-01-19T11:01:18.574Z,0.79
2023-01-19T11:03:47.201Z,0.88
2023-01-19T11:06:27.973Z,0.80
2023-01-19T11:09:12.592Z,0.82
2023-01-19T11:11:55.587Z,0.76
2023-01-19T11:14:30.673Z,0.73
2023-01-19T11:16:59.883Z,0.86
2023-01-19T11:19:31.061Z,0.96
2023-01-19T11:22:21.541Z,0.93
2023-01-19T11:24:50.683Z,0.84
2023-01-19T11:27:21.768Z,0.91
2023-01-19T11:29:59.014Z,0.93
2023-01-19T11:32:29.016Z,0.92
2023-01-19T11:34:57.823Z,1.00
2023-01-19T11:37:34.346Z,0.98
2023-01-19T11:40:16.032Z,0.97
2023-01-19T11:42:46.545Z,0.98
2023-01-19T11:45:18.669Z,1.00
2023-01-19T11:47:49.576Z,1.01
2023-01-19T11:50:27.655Z,1.07
2023-01-19T11:53:00.695Z,1.01
2023-01-19T11:55:37.743Z,1.04
2023-01-19T11:58:18.330Z,1.03
2023-01-19T12:00:51.282Z,1.03
2023-01-19T12:03:25.491Z,1.04
2023-01-19T12:06:08.452Z,1.08
2023-01-19T12:08:41.175Z,1.18
2023-01-19T12:11:15.803Z,1.16
2023-01-19T12:13:48.511Z,1.01
2023-01-19T12:16:22.821Z,1.10
2023-01-19T12:18:55.721Z,1.04
2023-01-19T12:21:24.089Z,1.18
2023-01-19T12:24:13.048Z,1.17
2023-01-19T12:26:49.477Z,1.20
2023-01-19T12:29:22.632Z,1.31
2023-01-19T12:32:18.709Z,1.29
2023-01-19T12:34:48.209Z,1.38
2023-01-19T12:37:45.325Z,1.26
2023-01-19T12:40:30.151Z,1.29
2023-01-19T12:43:01.850Z,1.20
2023-01-19T12:45:35.689Z,1.22
2023-01-19T12:48:05.286Z,1.16
2023-01-19T12:50:38.290Z,1.37
2023-01-19T12:53:20.663Z,1.68
2023-01-19T12:56:00.129Z,1.62
2023-01-19T12:58:28.797Z,1.73
2023-01-19T13:01:15.323Z,2.03
2023-01-19T13:04:03.725Z,1.94
2023-01-19T13:07:10.404Z,1.78
2023-01-19T13:09:39.963Z,1.85
2023-01-19T13:12:20.126Z,1.83
2023-01-19T13:14:52.589Z,1.98
2023-01-19T13:17:33.471Z,2.03
2023-01-19T13:20:35.711Z,2.06
2023-01-19T13:23:19.018Z,2.03
2023-01-19T13:25:58.598Z,2.00
2023-01-19T13:28:33.617Z,2.04
2023-01-19T13:31:03.797Z,1.87
2023-01-19T13:33:41.307Z,1.74
2023-01-19T13:36:21.397Z,1.62
2023-01-19T13:38:52.134Z,1.62
2023-01-19T13:41:25.151Z,1.73
2023-01-19T13:44:02.707Z,1.77
2023-01-19T13:46:38.466Z,1.89
2023-01-19T13:49:19.110Z,1.91
2023-01-19T13:51:53.121Z,1.79
2023-01-19T13:54:25.922Z,1.74
2023-01-19T13:56:55.031Z,1.65
2023-01-19T13:59:23.548Z,1.69
2023-01-19T14:01:54.143Z,1.71
2023-01-19T14:04:29.601Z,1.66
2023-01-19T14:07:01.830Z,1.64
2023-01-19T14:09:30.317Z,1.63
2023-01-19T14:12:25.687Z,1.50
2023-01-19T14:14:54.183Z,1.47
2023-01-19T14:17:27.846Z,1.39
2023-01-19T14:20:05.622Z,1.38
2023-01-19T14:22:39.869Z,1.34
2023-01-19T14:25:31.148Z,1.31
2023-01-19T14:28:28.385Z,1.26
2023-01-19T14:31:00.812Z,1.41
2023-01-19T14:33:46.969Z,1.39
2023-01-19T14:36:41.930Z,1.28
2023-01-19T14:39:24.436Z,1.27
2023-01-19T14:41:54.414Z,1.16
2023-01-19T14:44:29.733Z,1.07
2023-01-19T14:47:03.093Z,1.09
2023-01-19T14:49:36.804Z,1.15
2023-01-19T14:52:17.891Z,1.18
2023-01-19T14:54:47.499Z,1.23
2023-01-19T14:57:16.361Z,1.26
2023-01-19T14:59:49.504Z,1.21
2023-01-19T15:02:19.415Z,1.22
2023-01-19T15:04:48.816Z,1.22
2023-01-19T15:07:26.366Z,1.30
2023-01-19T15:10:00.192Z,1.14
2023-01-19T15:12:29.908Z,1.26
2023-01-19T15:14:58.329Z,1.16
2023-01-19T15:17:30.429Z,1.16
2023-01-19T15:19:58.781Z,1.03
2023-01-19T15:22:29.870Z,0.91
2023-01-19T15:24:59.952Z,0.82
2023-01-19T15:27:28.596Z,0.72
2023-01-19T15:30:01.987Z,0.62
2023-01-19T15:32:30.626Z,0.56
2023-01-19T15:34:59.079Z,0.49
2023-01-19T15:37:28.748Z,0.48
2023-01-19T15:40:01.372Z,0.48
2023-01-19T15:42:29.838Z,0.48
2023-01-19T15:44:58.205Z,0.42
2023-01-19T15:47:26.601Z,0.44
2023-01-19T15:49:55.015Z,0.38
2023-01-19T15:52:26.207Z,0.33
2023-01-19T15:54:55.899Z,0.28
2023-01-19T15:57:24.355Z,0.22
2023-01-19T15:59:53.278Z,0.16
2023-01-19T16:02:21.905Z,0.11
2023-01-19T16:04:50.591Z,0.12
2023-01-19T16:07:19.363Z,0.14
2023-01-19T16:09:48.081Z,0.13
2023-01-19T16:12:17.820Z,0.14
2023-01-19T16:14:46.259Z,0.20
2023-01-19T16:17:14.644Z,0.33
2023-01-19T16:19:43.172Z,0.34
2023-01-19T16:22:12.148Z,0.38
2023-01-19T16:24:40.699Z,0.38
2023-01-19T16:27:09.345Z,0.41
2023-01-19T16:29:39.060Z,0.49
2023-01-19T16:32:07.730Z,0.56
2023-01-19T16:34:36.889Z,0.58
2023-01-19T16:37:06.252Z,0.49
2023-01-19T16:39:34.976Z,0.47
2023-01-19T16:42:06.077Z,0.51
2023-01-19T16:44:36.083Z,0.54
2023-01-19T16:47:05.891Z,0.52
2023-01-19T16:49:34.293Z,0.51
2023-01-19T16:52:03.790Z,0.54
2023-01-19T16:54:32.823Z,0.50
2023-01-19T16:57:01.773Z,0.52
2023-01-19T16:59:30.177Z,0.49
2023-01-19T17:01:58.746Z,0.47
2023-01-19T17:04:29.435Z,0.49
2023-01-19T17:06:57.991Z,0.45
2023-01-19T17:09:26.380Z,0.55
2023-01-19T17:11:54.711Z,0.58
2023-01-19T17:14:23.171Z,1.40
2023-01-19T17:16:51.581Z,1.10
2023-01-19T17:19:22.075Z,0.87
2023-01-19T17:21:54.937Z,0.77
2023-01-19T17:24:23.688Z,0.63
2023-01-19T17:26:52.137Z,0.60
2023-01-19T17:29:20.455Z,0.51
2023-01-19T17:31:51.195Z,0.63
2023-01-19T17:34:19.592Z,0.54
2023-01-19T17:36:47.996Z,0.59
2023-01-19T17:39:18.421Z,0.54
2023-01-19T17:41:48.303Z,0.60
2023-01-19T17:44:18.533Z,0.63
2023-01-19T17:46:50.987Z,0.61
2023-01-19T17:49:19.621Z,0.61
2023-01-19T17:51:51.744Z,0.54
2023-01-19T17:54:21.557Z,0.50
2023-01-19T17:56:50.867Z,0.54
2023-01-19T17:59:19.272Z,0.53
2023-01-19T18:01:47.744Z,0.57
2023-01-19T18:04:16.164Z,0.58
2023-01-19T18:06:46.995Z,0.54
2023-01-19T18:09:15.343Z,0.54
2023-01-19T18:11:45.255Z,0.42
2023-01-19T18:14:13.601Z,0.32
2023-01-19T18:16:42.096Z,0.26
2023-01-19T18:19:10.655Z,0.26
2023-01-19T18:21:39.101Z,0.32
2023-01-19T18:24:07.996Z,0.24
2023-01-19T18:26:37.529Z,0.09
2023-01-19T18:29:07.340Z,0.17
2023-01-19T18:31:35.863Z,0.10
2023-01-19T18:34:04.572Z,0.09
2023-01-19T18:36:34.121Z,0.13
2023-01-19T18:39:02.578Z,0.14
2023-01-19T18:41:31.519Z,0.09
2023-01-19T18:44:00.317Z,0.10
2023-01-19T18:46:30.120Z,0.11
2023-01-19T18:48:58.623Z,0.11
2023-01-19T18:51:27.053Z,0.14
2023-01-19T18:53:55.687Z,0.12
2023-01-19T18:56:24.403Z,0.05
2023-01-19T18:58:53.208Z,0.06
2023-01-19T19:01:24.648Z,0.08
2023-01-19T19:03:55.690Z,0.17
2023-01-19T19:06:26.920Z,0.09
2023-01-19T19:08:56.887Z,0.25
2023-01-19T19:11:26.370Z,0.26
2023-01-19T19:13:55.425Z,0.29
2023-01-19T19:16:23.970Z,0.23
2023-01-19T19:18:53.879Z,0.33
2023-01-19T19:21:25.083Z,0.33
2023-01-19T19:23:54.445Z,0.26
2023-01-19T19:26:23.709Z,0.36
2023-01-19T19:28:52.177Z,0.30
2023-01-19T19:31:22.768Z,0.34
2023-01-19T19:33:51.819Z,0.47
2023-01-19T19:36:22.134Z,0.44
2023-01-19T19:38:51.340Z,0.56
2023-01-19T19:41:21.847Z,0.46
2023-01-19T19:43:50.714Z,0.48
2023-01-19T19:46:20.828Z,0.53
2023-01-19T19:48:52.228Z,0.55
2023-01-19T19:51:25.263Z,0.53
2023-01-19T19:53:54.564Z,0.48
2023-01-19T19:56:24.627Z,0.41
2023-01-19T19:58:55.858Z,0.44
2023-01-19T20:01:28.559Z,0.33
2023-01-19T20:03:59.849Z,0.31
2023-01-19T20:06:29.889Z,0.27
2023-01-19T20:08:58.263Z,0.16
2023-01-19T20:11:30.882Z,0.03
2023-01-19T20:13:59.514Z,-0.03
2023-01-19T20:16:28.285Z,-0.19
2023-01-19T20:18:56.764Z,-0.22
2023-01-19T20:21:27.086Z,-0.41
2023-01-19T20:24:00.188Z,-0.48
2023-01-19T20:26:31.873Z,-0.48
2023-01-19T20:29:05.783Z,-0.47
2023-01-19T20:31:36.535Z,-0.51
2023-01-19T20:34:07.626Z,-0.54
2023-01-19T20:36:37.523Z,-0.54
2023-01-19T20:39:10.964Z,-0.40
2023-01-19T20:41:44.996Z,-0.43
2023-01-19T20:44:14.628Z,-0.36
2023-01-19T20:46:43.473Z,-0.35
2023-01-19T20:49:11.940Z,-0.36
2023-01-19T20:51:43.228Z,-0.32
2023-01-19T20:54:14.903Z,-0.44
2023-01-19T20:56:44.197Z,-0.35
2023-01-19T20:59:13.559Z,-0.51
2023-01-19T21:01:42.905Z,-0.49
2023-01-19T21:04:12.131Z,-0.58
2023-01-19T21:06:41.217Z,-0.57
2023-01-19T21:09:11.132Z,-0.52
2023-01-19T21:11:41.087Z,-0.58
2023-01-19T21:14:09.417Z,-0.67
2023-01-19T21:16:38.920Z,-0.65
2023-01-19T21:19:07.795Z,-0.66
2023-01-19T21:21:36.214Z,-0.74
2023-01-19T21:24:05.227Z,-0.72
2023-01-19T21:26:34.245Z,-0.75
2023-01-19T21:29:04.724Z,-0.79
2023-01-19T21:31:33.140Z,-0.88
2023-01-19T21:34:01.635Z,-0.77
2023-01-19T21:36:29.981Z,-0.88
2023-01-19T21:39:00.596Z,-1.06
2023-01-19T21:41:30.343Z,-0.98
2023-01-19T21:44:00.547Z,-1.05
2023-01-19T21:46:32.607Z,-1.17
2023-01-19T21:49:02.566Z,-1.14
2023-01-19T21:51:33.312Z,-1.15
2023-01-19T21:54:02.613Z,-0.87
2023-01-19T21:56:34.522Z,-0.89
2023-01-19T21:59:03.445Z,-0.84
2023-01-19T22:01:34.569Z,-0.80
2023-01-19T22:04:03.088Z,-0.77
2023-01-19T22:06:31.544Z,-0.82
2023-01-19T22:09:00.611Z,-0.82
2023-01-19T22:11:29.959Z,-0.88
2023-01-19T22:13:59.627Z,-1.01
2023-01-19T22:16:29.413Z,-1.19
2023-01-19T22:19:01.799Z,-1.25
2023-01-19T22:21:31.919Z,-1.27
2023-01-19T22:24:01.878Z,-1.37
2023-01-19T22:26:31.654Z,-1.50
2023-01-19T22:29:01.752Z,-1.61
2023-01-19T22:31:31.391Z,-1.71
2023-01-19T22:34:01.237Z,-1.76
2023-01-19T22:36:31.616Z,-1.85
2023-01-19T22:39:01.679Z,-1.80
2023-01-19T22:41:31.760Z,-1.62
2023-01-19T22:44:02.294Z,-1.55
2023-01-19T22:46:32.655Z,-1.39
2023-01-19T22:49:03.099Z,-1.16
2023-01-19T22:51:33.078Z,-1.12
2023-01-19T22:54:02.073Z,-1.00
2023-01-19T22:56:32.258Z,-0.99
2023-01-19T22:59:01.621Z,-0.91
2023-01-19T23:01:33.487Z,-0.85
2023-01-19T23:04:05.375Z,-0.76
2023-01-19T23:06:36.048Z,-0.68
2023-01-19T23:09:06.058Z,-0.52
2023-01-19T23:11:36.423Z,-0.58
2023-01-19T23:14:06.284Z,-0.56
2023-01-19T23:16:35.563Z,-0.60
2023-01-19T23:19:05.998Z,-0.75
2023-01-19T23:21:35.097Z,-0.94
2023-01-19T23:24:05.457Z,-1.07
2023-01-19T23:26:38.009Z,-1.11
2023-01-19T23:29:08.577Z,-1.36
2023-01-19T23:31:38.902Z,-1.30
2023-01-19T23:34:10.417Z,-1.43
2023-01-19T23:36:40.654Z,-1.41
2023-01-19T23:39:14.382Z,-1.46
2023-01-19T23:41:42.836Z,-1.45
2023-01-19T23:44:11.386Z,-1.31
2023-01-19T23:46:43.807Z,-1.20
2023-01-19T23:49:13.794Z,-1.06
2023-01-19T23:51:42.540Z,-0.92
2023-01-19T23:54:12.141Z,-0.86
2023-01-19T23:56:42.452Z,-0.74
2023-01-19T23:59:12.754Z,-0.70
